Pagrindinis puslapis
METAR-TAF:

METAR-TAF

Oro uostai :

Larnaka, Kipras

platuma: 34-53N, ilguma: 033-38E, Aukštis: 2 m

Dabartinis oras

Ataskaita buvo paskelbta 11 minutes, ne 12:00 UTC
Vėjas 16 kt iš Pietų/Pietvakarių
Temperatūra 26°C
Drėgmė 51%
Slėgis 1014 hPa
Matomumas 10 km arba daugiau
Mažai debesys ne aukštis 3500 ft

METAR: LCLK 041200Z 21016KT 9999 FEW035 26/15 Q1014 NOSIG

Laikas: 15:11 (12:11 UTC)

Prognozė

Ataskaita buvo paskelbta 41 minutes, ne 11:30 UTC
Prognozė galioja nuo 04 metu 12 UTC su 05 metu 12 UTC
Vėjas 17 kt iš Pietų/Pietvakarių
Matomumas 10 km arba daugiau
Mažai debesys ne aukštis 3500 ft
Tapsmas
nuo 04 metu 15 UTC su 04 metu 19 UTC
Vėjas 6 kt iš Šiaurės/Šiaurės Vakarų
Tapsmas
nuo 05 metu 08 UTC su 05 metu 12 UTC
Vėjas 13 kt iš Pietų/Pietvakarių

TAF: LCLK 041130Z 0412/0512 21017KT 9999 FEW035 BECMG 0415/0419 33006KT BECMG 0508/0512 20013KT

Orai ataskaitas ir orų prognozės (METAR, TAF).

turimą stotys yra geltonos ir raudonos taškus žemėlapyje.

Perkelti pele per norėdami pamatyti stoties vardą.

Tada spustelėkite, norėdami matyti oro stebėjimo ir prognozės.

Norėdami pakeisti žemėlapį: spustelėkite ant žalios mygtukų su juodo kryžiaus žemyn,; žalią mygtuką su brūkšneliu, jei norite nutolinti; arba žalių rodyklių gretimoms žemėlapius.


METAR-TAF: